createdAt,value
2023-06-11T00:00:30.247Z,16.41
2023-06-11T00:03:00.492Z,16.40
2023-06-11T00:05:27.631Z,16.30
2023-06-11T00:07:56.396Z,16.26
2023-06-11T00:10:24.174Z,16.11
2023-06-11T00:12:51.131Z,16.06
2023-06-11T00:15:21.368Z,16.09
2023-06-11T00:17:48.408Z,16.09
2023-06-11T00:20:15.524Z,15.95
2023-06-11T00:22:45.452Z,16.00
2023-06-11T00:25:13.349Z,15.97
2023-06-11T00:27:40.882Z,16.03
2023-06-11T00:30:10.140Z,16.08
2023-06-11T00:32:37.504Z,16.07
2023-06-11T00:35:05.160Z,16.07
2023-06-11T00:37:31.976Z,16.03
2023-06-11T00:39:59.325Z,16.03
2023-06-11T00:42:27.186Z,15.98
2023-06-11T00:44:54.757Z,15.99
2023-06-11T00:47:21.817Z,16.02
2023-06-11T00:49:49.053Z,16.00
2023-06-11T00:52:17.521Z,15.94
2023-06-11T00:54:48.421Z,15.94
2023-06-11T00:57:16.976Z,15.94
2023-06-11T00:59:46.838Z,15.94
2023-06-11T01:02:18.025Z,16.00
2023-06-11T01:04:50.777Z,15.93
2023-06-11T01:07:22.401Z,15.91
2023-06-11T01:09:50.212Z,15.87
2023-06-11T01:12:17.959Z,15.86
2023-06-11T01:14:45.840Z,15.87
2023-06-11T01:17:41.230Z,15.87
2023-06-11T01:20:12.217Z,15.79
2023-06-11T01:23:01.424Z,15.78
2023-06-11T01:25:37.931Z,15.69
2023-06-11T01:28:11.256Z,15.67
2023-06-11T01:30:42.611Z,15.66
2023-06-11T01:33:10.199Z,15.67
2023-06-11T01:35:42.856Z,15.66
2023-06-11T01:38:10.014Z,15.53
2023-06-11T01:40:41.384Z,15.53
2023-06-11T01:43:09.725Z,15.61
2023-06-11T01:45:36.520Z,15.62
2023-06-11T01:48:04.534Z,15.60
2023-06-11T01:50:56.215Z,15.55
2023-06-11T01:53:24.109Z,15.55
2023-06-11T01:55:51.601Z,15.60
2023-06-11T01:58:18.457Z,15.49
2023-06-11T02:00:49.909Z,15.48
2023-06-11T02:03:18.149Z,15.45
2023-06-11T02:05:45.244Z,15.41
2023-06-11T02:08:13.438Z,15.40
2023-06-11T02:10:40.423Z,15.24
2023-06-11T02:13:07.924Z,15.14
2023-06-11T02:15:34.791Z,15.23
2023-06-11T02:18:01.943Z,15.24
2023-06-11T02:20:29.088Z,15.16
2023-06-11T02:25:47.468Z,15.16
2023-06-11T02:28:16.501Z,15.01
2023-06-11T02:30:43.667Z,15.07
2023-06-11T02:33:10.601Z,14.93
2023-06-11T02:35:37.909Z,15.01
2023-06-11T02:38:29.419Z,15.04
2023-06-11T02:40:56.218Z,14.98
2023-06-11T02:43:23.293Z,14.95
2023-06-11T02:45:51.932Z,14.92
2023-06-11T02:48:18.890Z,14.96
2023-06-11T02:50:46.470Z,14.77
2023-06-11T02:53:13.268Z,14.72
2023-06-11T02:55:41.395Z,14.70
2023-06-11T02:58:09.704Z,14.72
2023-06-11T03:00:36.699Z,14.77
2023-06-11T03:03:03.711Z,14.81
2023-06-11T03:05:37.601Z,14.83
2023-06-11T03:08:06.008Z,14.83
2023-06-11T03:10:34.135Z,14.75
2023-06-11T03:13:02.458Z,14.81
2023-06-11T03:15:31.540Z,14.76
2023-06-11T03:17:58.786Z,14.79
2023-06-11T03:20:26.346Z,14.80
2023-06-11T03:22:53.817Z,14.87
2023-06-11T03:25:21.054Z,14.80
2023-06-11T03:27:48.074Z,14.81
2023-06-11T03:30:19.239Z,14.67
2023-06-11T03:32:46.480Z,14.76
2023-06-11T03:35:14.658Z,14.83
2023-06-11T03:37:41.874Z,14.88
2023-06-11T03:40:15.474Z,14.96
2023-06-11T03:42:42.616Z,14.85
2023-06-11T03:45:10.733Z,14.72
2023-06-11T03:47:38.276Z,14.73
2023-06-11T03:50:06.505Z,14.75
2023-06-11T03:52:33.391Z,14.73
2023-06-11T03:55:02.542Z,14.79
2023-06-11T03:57:30.412Z,14.87
2023-06-11T03:59:57.955Z,14.87
2023-06-11T04:02:25.015Z,14.93
2023-06-11T04:04:52.970Z,15.01
2023-06-11T04:07:22.441Z,15.04
2023-06-11T04:09:49.293Z,14.99
2023-06-11T04:12:16.318Z,15.00
2023-06-11T04:14:44.410Z,15.05
2023-06-11T04:17:11.343Z,15.01
2023-06-11T04:19:38.718Z,15.09
2023-06-11T04:22:07.041Z,15.12
2023-06-11T04:24:36.241Z,15.13
2023-06-11T04:27:07.672Z,15.21
2023-06-11T04:29:34.805Z,15.21
2023-06-11T04:32:26.649Z,15.21
2023-06-11T04:34:55.386Z,15.21
2023-06-11T04:37:22.433Z,15.20
2023-06-11T04:39:49.558Z,15.27
2023-06-11T04:42:21.436Z,15.22
2023-06-11T04:45:13.697Z,15.27
2023-06-11T04:47:42.155Z,15.23
2023-06-11T04:50:09.853Z,15.19
2023-06-11T04:52:38.076Z,15.20
2023-06-11T04:55:08.691Z,15.26
2023-06-11T04:57:38.039Z,15.31
2023-06-11T05:00:06.699Z,15.39
2023-06-11T05:02:35.581Z,15.42
2023-06-11T05:05:03.251Z,15.54
2023-06-11T05:07:30.411Z,15.65
2023-06-11T05:09:58.442Z,15.78
2023-06-11T05:12:26.508Z,15.84
2023-06-11T05:14:54.116Z,15.90
2023-06-11T05:17:21.543Z,15.98
2023-06-11T05:19:48.985Z,16.03
2023-06-11T05:22:17.498Z,16.01
2023-06-11T05:24:46.335Z,16.00
2023-06-11T05:27:16.335Z,15.91
2023-06-11T05:29:46.426Z,15.92
2023-06-11T05:32:15.265Z,15.98
2023-06-11T05:34:43.248Z,15.91
2023-06-11T05:37:13.090Z,15.91
2023-06-11T05:39:41.188Z,15.95
2023-06-11T05:42:09.372Z,15.96
2023-06-11T05:44:39.465Z,15.87
2023-06-11T05:47:06.572Z,15.87
2023-06-11T05:49:34.274Z,15.83
2023-06-11T05:52:05.745Z,15.77
2023-06-11T05:54:32.738Z,15.76
2023-06-11T05:57:25.856Z,15.76
2023-06-11T05:59:57.477Z,15.80
2023-06-11T06:02:25.488Z,15.83
2023-06-11T06:04:53.315Z,15.84
2023-06-11T06:07:21.409Z,15.86
2023-06-11T06:09:52.361Z,15.93
2023-06-11T06:12:19.790Z,15.84
2023-06-11T06:14:46.855Z,15.84
2023-06-11T06:17:13.849Z,15.83
2023-06-11T06:19:41.964Z,15.85
2023-06-11T06:22:08.848Z,15.87
2023-06-11T06:24:35.885Z,15.92
2023-06-11T06:27:03.494Z,15.97
2023-06-11T06:29:33.431Z,15.97
2023-06-11T06:32:03.651Z,15.97
2023-06-11T06:34:31.044Z,16.01
2023-06-11T06:37:00.173Z,15.98
2023-06-11T06:39:30.578Z,15.99
2023-06-11T06:41:58.510Z,16.06
2023-06-11T06:44:51.627Z,16.07
2023-06-11T06:47:19.234Z,16.13
2023-06-11T06:49:48.456Z,16.10
2023-06-11T06:52:15.352Z,16.14
2023-06-11T06:54:42.266Z,16.15
2023-06-11T06:57:09.141Z,16.17
2023-06-11T07:02:53.246Z,16.23
2023-06-11T07:05:21.649Z,16.23
2023-06-11T07:08:13.723Z,16.22
2023-06-11T07:10:45.558Z,16.22
2023-06-11T07:13:12.559Z,16.28
2023-06-11T07:15:40.868Z,16.30
2023-06-11T07:18:15.975Z,16.34
2023-06-11T07:20:46.885Z,16.37
2023-06-11T07:23:13.965Z,16.35
2023-06-11T07:25:42.036Z,16.41
2023-06-11T07:28:09.106Z,16.40
2023-06-11T07:30:37.390Z,16.42
2023-06-11T07:33:06.045Z,16.38
2023-06-11T07:35:37.564Z,16.38
2023-06-11T07:38:04.401Z,16.40
2023-06-11T07:40:32.530Z,16.44
2023-06-11T07:42:59.394Z,16.47
2023-06-11T07:48:22.292Z,16.52
2023-06-11T07:50:50.889Z,16.52
2023-06-11T07:53:21.935Z,16.58
2023-06-11T07:55:50.524Z,16.58
2023-06-11T07:58:19.390Z,16.59
2023-06-11T08:03:37.289Z,16.56
2023-06-11T08:06:04.394Z,16.64
2023-06-11T08:08:31.417Z,16.67
2023-06-11T08:11:03.861Z,16.70
2023-06-11T08:13:32.404Z,16.80
2023-06-11T08:16:00.175Z,16.87
2023-06-11T08:18:29.566Z,16.88
2023-06-11T08:20:59.035Z,16.86
2023-06-11T08:23:30.048Z,16.93
2023-06-11T08:25:56.845Z,16.89
2023-06-11T08:28:24.170Z,16.92
2023-06-11T08:30:51.005Z,17.01
2023-06-11T08:33:17.916Z,17.03
2023-06-11T08:35:44.826Z,17.04
2023-06-11T08:38:11.953Z,17.04
2023-06-11T08:40:42.001Z,16.99
2023-06-11T08:43:10.421Z,16.95
2023-06-11T08:45:38.206Z,16.94
2023-06-11T08:48:10.140Z,17.00
2023-06-11T08:50:38.992Z,16.98
2023-06-11T08:53:06.106Z,16.96
2023-06-11T08:55:38.519Z,16.97
2023-06-11T08:58:05.889Z,16.95
2023-06-11T09:00:32.950Z,16.97
2023-06-11T09:02:59.795Z,16.98
2023-06-11T09:05:27.093Z,16.98
2023-06-11T09:11:10.885Z,17.11
2023-06-11T09:13:41.019Z,17.13
2023-06-11T09:16:07.949Z,17.13
2023-06-11T09:18:35.551Z,17.15
2023-06-11T09:21:03.089Z,17.17
2023-06-11T09:23:35.258Z,17.18
2023-06-11T09:26:03.638Z,17.20
2023-06-11T09:28:31.363Z,17.24
2023-06-11T09:31:00.548Z,17.25
2023-06-11T09:33:32.212Z,17.23
2023-06-11T09:35:59.830Z,17.27
2023-06-11T09:38:27.549Z,17.35
2023-06-11T09:40:58.463Z,17.36
2023-06-11T09:43:26.430Z,17.37
2023-06-11T09:45:56.588Z,17.40
2023-06-11T09:48:24.687Z,17.42
2023-06-11T09:50:53.090Z,17.48
2023-06-11T09:53:22.536Z,17.54
2023-06-11T09:56:05.587Z,17.58
2023-06-11T09:58:40.078Z,17.69
2023-06-11T10:01:33.373Z,17.71
2023-06-11T10:04:02.439Z,17.73
2023-06-11T10:06:38.646Z,17.81
2023-06-11T10:09:11.521Z,17.86
2023-06-11T10:11:40.299Z,17.85
2023-06-11T10:14:15.922Z,17.90
2023-06-11T10:16:51.462Z,17.90
2023-06-11T10:22:10.607Z,18.00
2023-06-11T10:24:37.401Z,18.02
2023-06-11T10:27:06.661Z,17.95
2023-06-11T10:29:47.031Z,17.92
2023-06-11T10:32:24.473Z,17.97
2023-06-11T10:35:02.913Z,17.93
2023-06-11T10:37:29.906Z,17.96
2023-06-11T10:39:56.735Z,17.93
2023-06-11T10:42:29.548Z,17.94
2023-06-11T10:45:00.278Z,17.97
2023-06-11T10:47:29.006Z,17.98
2023-06-11T10:50:09.646Z,17.99
2023-06-11T10:52:56.763Z,18.01
2023-06-11T10:55:25.571Z,18.02
2023-06-11T10:57:54.996Z,18.06
2023-06-11T11:00:22.600Z,18.08
2023-06-11T11:02:51.535Z,18.13
2023-06-11T11:05:18.419Z,18.13
2023-06-11T11:07:49.667Z,18.24
2023-06-11T11:10:16.473Z,18.31
2023-06-11T11:12:49.696Z,18.33
2023-06-11T11:15:18.314Z,18.31
2023-06-11T11:17:46.047Z,18.24
2023-06-11T11:20:18.601Z,18.24
2023-06-11T11:22:55.995Z,18.20
2023-06-11T11:25:28.616Z,18.18
2023-06-11T11:27:59.426Z,18.23
2023-06-11T11:30:28.089Z,18.23
2023-06-11T11:32:56.036Z,18.25
2023-06-11T11:35:24.199Z,18.26
2023-06-11T11:37:53.541Z,18.33
2023-06-11T11:40:21.894Z,18.31
2023-06-11T11:42:52.595Z,18.27
2023-06-11T11:45:22.932Z,18.26
2023-06-11T11:47:52.373Z,18.30
2023-06-11T11:50:27.930Z,18.36
2023-06-11T11:53:20.023Z,18.46
2023-06-11T11:56:04.266Z,18.55
2023-06-11T11:58:43.285Z,18.65
2023-06-11T12:01:19.674Z,18.76
2023-06-11T12:03:56.836Z,18.89
2023-06-11T12:06:25.733Z,19.06
2023-06-11T12:08:54.338Z,19.26
2023-06-11T12:11:23.428Z,19.29
2023-06-11T12:17:06.679Z,19.31
2023-06-11T12:19:33.604Z,19.31
2023-06-11T12:22:07.449Z,19.32
2023-06-11T12:24:34.442Z,19.35
2023-06-11T12:27:08.659Z,19.38
2023-06-11T12:29:36.622Z,19.43
2023-06-11T12:32:03.629Z,19.41
2023-06-11T12:34:31.941Z,19.43
2023-06-11T12:36:59.907Z,19.43
2023-06-11T12:39:29.596Z,19.42
2023-06-11T12:41:56.481Z,19.32
2023-06-11T12:44:24.074Z,19.35
2023-06-11T12:46:51.529Z,19.32
2023-06-11T12:49:18.319Z,19.36
2023-06-11T12:51:48.576Z,19.35
2023-06-11T12:54:15.496Z,19.35
2023-06-11T12:56:42.351Z,19.37
2023-06-11T12:59:09.235Z,19.42
2023-06-11T13:01:36.885Z,19.45
2023-06-11T13:04:03.871Z,19.47
2023-06-11T13:06:30.727Z,19.46
2023-06-11T13:08:57.590Z,19.51
2023-06-11T13:11:24.578Z,19.61
2023-06-11T13:13:51.559Z,19.59
2023-06-11T13:16:20.631Z,19.65
2023-06-11T13:18:47.489Z,19.65
2023-06-11T13:21:16.025Z,19.67
2023-06-11T13:23:43.585Z,19.69
2023-06-11T13:26:10.957Z,19.70
2023-06-11T13:28:37.749Z,19.72
2023-06-11T13:31:05.270Z,19.77
2023-06-11T13:33:32.229Z,19.73
2023-06-11T13:36:05.551Z,19.75
2023-06-11T13:38:32.460Z,19.77
2023-06-11T13:40:59.359Z,19.77
2023-06-11T13:43:27.652Z,19.84
2023-06-11T13:45:55.313Z,19.87
2023-06-11T13:48:22.585Z,19.89
2023-06-11T13:50:49.949Z,19.90
2023-06-11T13:53:17.135Z,19.84
2023-06-11T13:55:45.349Z,19.87
2023-06-11T13:58:12.531Z,19.90
2023-06-11T14:00:39.578Z,19.89
2023-06-11T14:03:06.816Z,19.88
2023-06-11T14:05:35.619Z,19.89
2023-06-11T14:08:02.907Z,19.93
2023-06-11T14:10:30.000Z,19.99
2023-06-11T14:12:57.042Z,20.04
2023-06-11T14:15:23.789Z,20.02
2023-06-11T14:17:50.664Z,20.01
2023-06-11T14:20:18.041Z,20.02
2023-06-11T14:22:46.597Z,19.96
2023-06-11T14:25:13.546Z,19.92
2023-06-11T14:27:40.354Z,19.91
2023-06-11T14:30:07.885Z,19.89
2023-06-11T14:32:38.601Z,19.86
2023-06-11T14:35:07.553Z,19.89
2023-06-11T14:37:34.393Z,19.87
2023-06-11T14:40:02.212Z,19.81
2023-06-11T14:42:29.013Z,19.73
2023-06-11T14:44:56.150Z,19.77
2023-06-11T14:47:23.963Z,19.76
2023-06-11T14:49:51.056Z,19.78
2023-06-11T14:52:18.222Z,19.76
2023-06-11T14:55:10.811Z,19.78
2023-06-11T14:57:37.716Z,19.78
2023-06-11T15:00:05.063Z,19.75
2023-06-11T15:02:32.283Z,19.74
2023-06-11T15:04:59.043Z,19.76
2023-06-11T15:07:34.499Z,19.78
2023-06-11T15:10:06.698Z,19.83
2023-06-11T15:12:33.744Z,19.90
2023-06-11T15:15:00.666Z,19.88
2023-06-11T15:17:52.757Z,19.87
2023-06-11T15:20:19.970Z,19.85
2023-06-11T15:22:46.730Z,19.87
2023-06-11T15:25:17.316Z,19.85
2023-06-11T15:27:44.347Z,19.83
2023-06-11T15:30:11.615Z,19.88
2023-06-11T15:32:38.876Z,19.82
2023-06-11T15:35:07.632Z,19.87
2023-06-11T15:37:34.445Z,19.87
2023-06-11T15:40:03.434Z,19.85
2023-06-11T15:42:30.342Z,19.85
2023-06-11T15:44:57.309Z,19.87
2023-06-11T15:47:24.211Z,19.89
2023-06-11T15:49:52.205Z,19.90
2023-06-11T15:52:19.163Z,19.89
2023-06-11T15:54:47.686Z,19.89
2023-06-11T15:57:14.518Z,19.91
2023-06-11T15:59:43.213Z,19.92
2023-06-11T16:02:09.982Z,19.96
2023-06-11T16:04:38.281Z,19.94
2023-06-11T16:07:05.463Z,19.99
2023-06-11T16:09:34.768Z,19.97
2023-06-11T16:12:03.087Z,19.96
2023-06-11T16:14:30.603Z,19.96
2023-06-11T16:16:58.847Z,19.95
2023-06-11T16:19:26.250Z,19.95
2023-06-11T16:21:53.052Z,19.92
2023-06-11T16:24:20.262Z,19.92
2023-06-11T16:26:47.232Z,19.94
2023-06-11T16:29:15.578Z,19.93
2023-06-11T16:31:43.880Z,19.93
2023-06-11T16:34:11.768Z,19.94
2023-06-11T16:36:39.836Z,19.87
2023-06-11T16:39:21.800Z,19.87
2023-06-11T16:41:54.073Z,19.82
2023-06-11T16:44:22.704Z,19.75
2023-06-11T16:46:49.626Z,19.73
2023-06-11T16:49:18.603Z,19.77
2023-06-11T16:51:45.623Z,19.78
2023-06-11T16:54:15.789Z,19.79
2023-06-11T16:56:45.143Z,19.81
2023-06-11T16:59:12.074Z,19.81
2023-06-11T17:01:39.036Z,19.80
2023-06-11T17:04:08.690Z,19.78
2023-06-11T17:06:35.962Z,19.83
2023-06-11T17:09:03.111Z,19.85
2023-06-11T17:11:29.914Z,19.80
2023-06-11T17:14:00.687Z,19.83
2023-06-11T17:16:27.625Z,19.79
2023-06-11T17:18:54.536Z,19.82
2023-06-11T17:21:21.661Z,19.86
2023-06-11T17:23:49.066Z,19.89
2023-06-11T17:26:17.529Z,19.89
2023-06-11T17:28:45.639Z,19.89
2023-06-11T17:31:13.103Z,19.91
2023-06-11T17:33:39.964Z,19.89
2023-06-11T17:36:07.631Z,19.85
2023-06-11T17:38:34.735Z,19.77
2023-06-11T17:41:01.552Z,19.80
2023-06-11T17:43:28.412Z,19.81
2023-06-11T17:45:56.687Z,19.81
2023-06-11T17:48:23.647Z,19.84
2023-06-11T17:51:15.792Z,19.85
2023-06-11T17:53:42.662Z,19.75
2023-06-11T17:56:09.697Z,19.79
2023-06-11T17:58:38.683Z,19.77
2023-06-11T18:01:07.816Z,19.72
2023-06-11T18:03:35.054Z,19.71
2023-06-11T18:06:03.680Z,19.70
2023-06-11T18:08:30.874Z,19.70
2023-06-11T18:10:57.881Z,19.69
2023-06-11T18:13:25.705Z,19.68
2023-06-11T18:15:53.157Z,19.62
2023-06-11T18:18:21.039Z,19.65
2023-06-11T18:20:47.987Z,19.63
2023-06-11T18:23:15.781Z,19.57
2023-06-11T18:25:43.307Z,19.58
2023-06-11T18:28:11.716Z,19.54
2023-06-11T18:30:39.088Z,19.49
2023-06-11T18:33:05.967Z,19.47
2023-06-11T18:35:34.008Z,19.50
2023-06-11T18:38:01.116Z,19.49
2023-06-11T18:40:27.958Z,19.49
2023-06-11T18:42:54.972Z,19.45
2023-06-11T18:45:21.904Z,19.44
2023-06-11T18:47:52.683Z,19.48
2023-06-11T18:50:21.057Z,19.40
2023-06-11T18:52:51.138Z,19.50
2023-06-11T18:55:18.104Z,19.53
2023-06-11T18:57:44.948Z,19.55
2023-06-11T19:00:12.570Z,19.56
2023-06-11T19:05:32.311Z,19.44
2023-06-11T19:07:59.383Z,19.38
2023-06-11T19:10:28.109Z,19.35
2023-06-11T19:13:19.840Z,19.30
2023-06-11T19:15:47.077Z,19.31
2023-06-11T19:18:14.329Z,19.25
2023-06-11T19:21:07.688Z,19.24
2023-06-11T19:23:35.338Z,19.22
2023-06-11T19:26:02.128Z,19.30
2023-06-11T19:28:29.299Z,19.28
2023-06-11T19:31:00.121Z,19.26
2023-06-11T19:36:19.779Z,19.25
2023-06-11T19:38:46.710Z,19.24
2023-06-11T19:41:15.870Z,19.31
2023-06-11T19:43:43.154Z,19.30
2023-06-11T19:46:10.454Z,19.30
2023-06-11T19:48:37.246Z,19.28
2023-06-11T19:51:09.553Z,19.22
2023-06-11T19:53:39.202Z,19.29
2023-06-11T19:56:06.261Z,19.30
2023-06-11T19:58:33.805Z,19.24
2023-06-11T20:01:02.479Z,19.23
2023-06-11T20:03:31.491Z,19.24
2023-06-11T20:05:58.366Z,19.21
2023-06-11T20:08:25.183Z,19.26
2023-06-11T20:10:56.736Z,19.31
2023-06-11T20:13:53.683Z,19.22
2023-06-11T20:16:21.821Z,19.19
2023-06-11T20:18:49.711Z,19.11
2023-06-11T20:21:17.140Z,19.08
2023-06-11T20:23:43.948Z,19.03
2023-06-11T20:26:11.701Z,18.97
2023-06-11T20:28:39.078Z,18.96
2023-06-11T20:31:06.705Z,18.90
2023-06-11T20:33:33.612Z,18.85
2023-06-11T20:36:00.452Z,18.75
2023-06-11T20:38:28.732Z,18.77
2023-06-11T20:41:20.787Z,18.75
2023-06-11T20:43:50.720Z,18.76
2023-06-11T20:46:29.001Z,18.71
2023-06-11T20:48:57.913Z,18.71
2023-06-11T20:51:25.064Z,18.65
2023-06-11T20:53:52.663Z,18.63
2023-06-11T20:56:20.505Z,18.60
2023-06-11T20:58:49.350Z,18.53
2023-06-11T21:01:16.316Z,18.51
2023-06-11T21:03:43.557Z,18.56
2023-06-11T21:06:11.767Z,18.56
2023-06-11T21:08:39.124Z,18.47
2023-06-11T21:11:05.876Z,18.42
2023-06-11T21:13:33.719Z,18.45
2023-06-11T21:16:02.152Z,18.39
2023-06-11T21:18:29.063Z,18.34
2023-06-11T21:20:55.924Z,18.30
2023-06-11T21:23:22.972Z,18.32
2023-06-11T21:25:51.759Z,18.25
2023-06-11T21:28:19.143Z,18.25
2023-06-11T21:30:46.005Z,18.13
2023-06-11T21:33:13.029Z,18.12
2023-06-11T21:35:39.859Z,18.10
2023-06-11T21:38:06.850Z,18.08
2023-06-11T21:40:34.105Z,18.08
2023-06-11T21:43:01.028Z,18.08
2023-06-11T21:45:27.966Z,18.04
2023-06-11T21:47:54.979Z,17.93
2023-06-11T21:53:14.251Z,17.95
2023-06-11T21:55:42.094Z,17.85
2023-06-11T21:58:09.811Z,17.84
2023-06-11T22:00:37.085Z,17.83
2023-06-11T22:03:04.572Z,17.82
2023-06-11T22:05:32.058Z,17.74
2023-06-11T22:07:59.195Z,17.70
2023-06-11T22:10:27.220Z,17.62
2023-06-11T22:12:54.466Z,17.56
2023-06-11T22:15:21.260Z,17.45
2023-06-11T22:17:48.721Z,17.43
2023-06-11T22:20:15.948Z,17.36
2023-06-11T22:22:43.777Z,17.34
2023-06-11T22:25:13.802Z,17.27
2023-06-11T22:27:43.032Z,17.27
2023-06-11T22:30:11.931Z,17.24
2023-06-11T22:32:39.922Z,17.21
2023-06-11T22:35:07.906Z,17.21
2023-06-11T22:37:34.737Z,17.21
2023-06-11T22:40:01.724Z,17.17
2023-06-11T22:42:28.631Z,17.14
2023-06-11T22:44:55.415Z,17.07
2023-06-11T22:47:22.717Z,17.13
2023-06-11T22:49:49.549Z,17.07
2023-06-11T22:52:18.757Z,17.06
2023-06-11T22:54:45.554Z,17.06
2023-06-11T22:57:13.276Z,17.01
2023-06-11T22:59:40.125Z,16.93
2023-06-11T23:02:08.825Z,16.99
2023-06-11T23:04:35.783Z,16.94
2023-06-11T23:07:04.843Z,16.96
2023-06-11T23:09:31.819Z,16.88
2023-06-11T23:11:59.138Z,16.84
2023-06-11T23:14:25.945Z,16.73
2023-06-11T23:16:53.348Z,16.72
2023-06-11T23:19:21.747Z,16.72
2023-06-11T23:21:48.708Z,16.57
2023-06-11T23:24:15.716Z,16.62
2023-06-11T23:26:43.357Z,16.60
2023-06-11T23:29:10.159Z,16.61
2023-06-11T23:31:38.432Z,16.59
2023-06-11T23:34:05.293Z,16.56
2023-06-11T23:36:32.190Z,16.50
2023-06-11T23:41:51.306Z,16.40
2023-06-11T23:44:18.204Z,16.39
2023-06-11T23:46:45.249Z,16.37
2023-06-11T23:49:14.167Z,16.31
2023-06-11T23:51:42.302Z,16.28
2023-06-11T23:54:09.202Z,16.26
2023-06-11T23:56:36.491Z,16.27
2023-06-11T23:59:03.482Z,16.22
